sensor_id;sensor_type;location;lat;lon;timestamp;pressure;altitude;pressure_sealevel;temperature
70533;BMP180;58088;51.186;17.130;2023-08-01T00:00:05;99311.60;;;22.62
70533;BMP180;58088;51.186;17.130;2023-08-01T00:02:39;99309.60;;;22.68
70533;BMP180;58088;51.186;17.130;2023-08-01T00:05:08;99308.40;;;22.64
70533;BMP180;58088;51.186;17.130;2023-08-01T00:07:34;99303.20;;;22.62
70533;BMP180;58088;51.186;17.130;2023-08-01T00:10:01;99296.00;;;22.68
70533;BMP180;58088;51.186;17.130;2023-08-01T00:12:29;99293.60;;;22.60
70533;BMP180;58088;51.186;17.130;2023-08-01T00:14:56;99292.80;;;22.60
70533;BMP180;58088;51.186;17.130;2023-08-01T00:17:22;99289.20;;;22.60
70533;BMP180;58088;51.186;17.130;2023-08-01T00:19:49;99288.60;;;22.60
70533;BMP180;58088;51.186;17.130;2023-08-01T00:22:16;99285.20;;;22.60
70533;BMP180;58088;51.186;17.130;2023-08-01T00:24:43;99282.20;;;22.60
70533;BMP180;58088;51.186;17.130;2023-08-01T00:27:09;99282.80;;;22.60
70533;BMP180;58088;51.186;17.130;2023-08-01T00:29:36;99276.60;;;22.60
70533;BMP180;58088;51.186;17.130;2023-08-01T00:32:03;99271.40;;;22.54
70533;BMP180;58088;51.186;17.130;2023-08-01T00:34:30;99266.20;;;22.50
70533;BMP180;58088;51.186;17.130;2023-08-01T00:36:58;99258.80;;;22.50
70533;BMP180;58088;51.186;17.130;2023-08-01T00:39:24;99251.60;;;22.42
70533;BMP180;58088;51.186;17.130;2023-08-01T00:41:50;99252.00;;;22.40
70533;BMP180;58088;51.186;17.130;2023-08-01T00:44:18;99244.20;;;22.40
70533;BMP180;58088;51.186;17.130;2023-08-01T00:46:45;99241.80;;;22.34
70533;BMP180;58088;51.186;17.130;2023-08-01T00:49:13;99239.20;;;22.30
70533;BMP180;58088;51.186;17.130;2023-08-01T00:51:41;99230.20;;;22.28
70533;BMP180;58088;51.186;17.130;2023-08-01T00:54:08;99229.20;;;22.20
70533;BMP180;58088;51.186;17.130;2023-08-01T00:56:37;99224.60;;;22.20
70533;BMP180;58088;51.186;17.130;2023-08-01T00:59:06;99222.40;;;22.20
70533;BMP180;58088;51.186;17.130;2023-08-01T01:01:32;99225.00;;;22.20
70533;BMP180;58088;51.186;17.130;2023-08-01T01:04:01;99222.60;;;22.20
70533;BMP180;58088;51.186;17.130;2023-08-01T01:06:34;99219.60;;;22.10
70533;BMP180;58088;51.186;17.130;2023-08-01T01:09:18;99211.20;;;22.10
70533;BMP180;58088;51.186;17.130;2023-08-01T01:11:46;99200.40;;;22.10
70533;BMP180;58088;51.186;17.130;2023-08-01T01:14:13;99193.00;;;22.10
70533;BMP180;58088;51.186;17.130;2023-08-01T01:16:39;99192.80;;;22.00
70533;BMP180;58088;51.186;17.130;2023-08-01T01:19:08;99186.40;;;22.00
70533;BMP180;58088;51.186;17.130;2023-08-01T01:21:38;99182.40;;;22.00
70533;BMP180;58088;51.186;17.130;2023-08-01T01:24:08;99181.40;;;22.00
70533;BMP180;58088;51.186;17.130;2023-08-01T01:26:36;99176.20;;;21.90
70533;BMP180;58088;51.186;17.130;2023-08-01T01:29:04;99168.20;;;21.90
70533;BMP180;58088;51.186;17.130;2023-08-01T01:31:33;99169.60;;;21.90
70533;BMP180;58088;51.186;17.130;2023-08-01T01:34:00;99166.80;;;21.90
70533;BMP180;58088;51.186;17.130;2023-08-01T01:36:27;99164.20;;;21.82
70533;BMP180;58088;51.186;17.130;2023-08-01T01:38:53;99165.80;;;21.80
70533;BMP180;58088;51.186;17.130;2023-08-01T01:41:19;99161.80;;;21.80
70533;BMP180;58088;51.186;17.130;2023-08-01T01:43:45;99154.60;;;21.80
70533;BMP180;58088;51.186;17.130;2023-08-01T01:46:11;99147.20;;;21.70
70533;BMP180;58088;51.186;17.130;2023-08-01T01:48:38;99144.60;;;21.70
70533;BMP180;58088;51.186;17.130;2023-08-01T01:51:04;99143.20;;;21.60
70533;BMP180;58088;51.186;17.130;2023-08-01T01:53:30;99139.00;;;21.56
70533;BMP180;58088;51.186;17.130;2023-08-01T01:55:56;99138.60;;;21.50
70533;BMP180;58088;51.186;17.130;2023-08-01T01:58:22;99135.40;;;21.50
70533;BMP180;58088;51.186;17.130;2023-08-01T02:04:51;99125.80;;;21.40
70533;BMP180;58088;51.186;17.130;2023-08-01T02:07:17;99122.80;;;21.40
70533;BMP180;58088;51.186;17.130;2023-08-01T02:09:44;99124.00;;;21.40
70533;BMP180;58088;51.186;17.130;2023-08-01T02:12:10;99124.40;;;21.40
70533;BMP180;58088;51.186;17.130;2023-08-01T02:14:41;99116.00;;;21.40
70533;BMP180;58088;51.186;17.130;2023-08-01T02:17:07;99112.00;;;21.40
70533;BMP180;58088;51.186;17.130;2023-08-01T02:19:33;99106.00;;;21.40
70533;BMP180;58088;51.186;17.130;2023-08-01T02:22:00;99106.40;;;21.38
70533;BMP180;58088;51.186;17.130;2023-08-01T02:24:26;99103.20;;;21.40
70533;BMP180;58088;51.186;17.130;2023-08-01T02:26:52;99102.40;;;21.34
70533;BMP180;58088;51.186;17.130;2023-08-01T02:29:18;99100.80;;;21.38
70533;BMP180;58088;51.186;17.130;2023-08-01T02:31:44;99100.40;;;21.40
70533;BMP180;58088;51.186;17.130;2023-08-01T02:34:10;99095.80;;;21.40
70533;BMP180;58088;51.186;17.130;2023-08-01T02:36:36;99098.20;;;21.40
70533;BMP180;58088;51.186;17.130;2023-08-01T02:39:02;99090.40;;;21.40
70533;BMP180;58088;51.186;17.130;2023-08-01T02:41:29;99094.00;;;21.40
70533;BMP180;58088;51.186;17.130;2023-08-01T02:43:55;99089.20;;;21.40
70533;BMP180;58088;51.186;17.130;2023-08-01T02:46:22;99087.20;;;21.40
70533;BMP180;58088;51.186;17.130;2023-08-01T02:48:48;99085.00;;;21.48
70533;BMP180;58088;51.186;17.130;2023-08-01T02:51:14;99083.00;;;21.46
70533;BMP180;58088;51.186;17.130;2023-08-01T02:53:41;99082.00;;;21.40
70533;BMP180;58088;51.186;17.130;2023-08-01T02:56:08;99075.80;;;21.40
70533;BMP180;58088;51.186;17.130;2023-08-01T02:58:36;99073.40;;;21.40
70533;BMP180;58088;51.186;17.130;2023-08-01T03:01:07;99074.60;;;21.40
70533;BMP180;58088;51.186;17.130;2023-08-01T03:03:36;99077.00;;;21.40
70533;BMP180;58088;51.186;17.130;2023-08-01T03:06:03;99074.20;;;21.40
70533;BMP180;58088;51.186;17.130;2023-08-01T03:08:29;99068.20;;;21.34
70533;BMP180;58088;51.186;17.130;2023-08-01T03:10:57;99066.60;;;21.36
70533;BMP180;58088;51.186;17.130;2023-08-01T03:13:23;99062.00;;;21.38
70533;BMP180;58088;51.186;17.130;2023-08-01T03:15:50;99058.40;;;21.38
70533;BMP180;58088;51.186;17.130;2023-08-01T03:18:16;99058.00;;;21.40
70533;BMP180;58088;51.186;17.130;2023-08-01T03:20:43;99055.40;;;21.30
70533;BMP180;58088;51.186;17.130;2023-08-01T03:23:09;99054.80;;;21.30
70533;BMP180;58088;51.186;17.130;2023-08-01T03:25:36;99051.20;;;21.30
70533;BMP180;58088;51.186;17.130;2023-08-01T03:28:04;99047.60;;;21.30
70533;BMP180;58088;51.186;17.130;2023-08-01T03:30:34;99040.40;;;21.30
70533;BMP180;58088;51.186;17.130;2023-08-01T03:33:01;99032.40;;;21.20
70533;BMP180;58088;51.186;17.130;2023-08-01T03:35:28;99037.60;;;21.18
70533;BMP180;58088;51.186;17.130;2023-08-01T03:37:55;99027.60;;;21.10
70533;BMP180;58088;51.186;17.130;2023-08-01T03:40:22;99028.80;;;21.10
70533;BMP180;58088;51.186;17.130;2023-08-01T03:42:48;99022.00;;;21.02
70533;BMP180;58088;51.186;17.130;2023-08-01T03:45:15;99018.60;;;21.00
70533;BMP180;58088;51.186;17.130;2023-08-01T03:47:41;99011.40;;;20.92
70533;BMP180;58088;51.186;17.130;2023-08-01T03:50:08;99010.40;;;20.90
70533;BMP180;58088;51.186;17.130;2023-08-01T03:52:35;99012.40;;;20.90
70533;BMP180;58088;51.186;17.130;2023-08-01T03:55:01;99008.40;;;20.90
70533;BMP180;58088;51.186;17.130;2023-08-01T03:57:28;99007.20;;;20.90
70533;BMP180;58088;51.186;17.130;2023-08-01T03:59:55;99006.40;;;20.90
70533;BMP180;58088;51.186;17.130;2023-08-01T04:02:21;99009.60;;;20.90
70533;BMP180;58088;51.186;17.130;2023-08-01T04:04:47;99015.40;;;21.00
70533;BMP180;58088;51.186;17.130;2023-08-01T04:07:13;99011.80;;;21.00
70533;BMP180;58088;51.186;17.130;2023-08-01T04:09:40;99010.80;;;21.00
70533;BMP180;58088;51.186;17.130;2023-08-01T04:12:07;99014.40;;;21.00
70533;BMP180;58088;51.186;17.130;2023-08-01T04:14:34;99014.60;;;21.00
70533;BMP180;58088;51.186;17.130;2023-08-01T04:17:00;99012.60;;;21.00
70533;BMP180;58088;51.186;17.130;2023-08-01T04:19:27;99008.80;;;20.98
70533;BMP180;58088;51.186;17.130;2023-08-01T04:21:53;99012.80;;;20.96
70533;BMP180;58088;51.186;17.130;2023-08-01T04:24:19;99014.80;;;21.00
70533;BMP180;58088;51.186;17.130;2023-08-01T04:26:45;99016.00;;;20.98
70533;BMP180;58088;51.186;17.130;2023-08-01T04:29:12;99013.20;;;20.92
70533;BMP180;58088;51.186;17.130;2023-08-01T04:31:41;99013.40;;;20.90
70533;BMP180;58088;51.186;17.130;2023-08-01T04:34:07;99012.80;;;21.00
70533;BMP180;58088;51.186;17.130;2023-08-01T04:36:33;99017.80;;;20.90
70533;BMP180;58088;51.186;17.130;2023-08-01T04:39:00;99018.40;;;20.90
70533;BMP180;58088;51.186;17.130;2023-08-01T04:41:26;99010.80;;;20.80
70533;BMP180;58088;51.186;17.130;2023-08-01T04:43:53;99009.00;;;20.80
70533;BMP180;58088;51.186;17.130;2023-08-01T04:46:19;99008.40;;;20.70
70533;BMP180;58088;51.186;17.130;2023-08-01T04:48:46;99004.00;;;20.70
70533;BMP180;58088;51.186;17.130;2023-08-01T04:51:12;99003.00;;;20.70
70533;BMP180;58088;51.186;17.130;2023-08-01T04:53:38;98990.40;;;20.70
70533;BMP180;58088;51.186;17.130;2023-08-01T04:56:05;98989.00;;;20.62
70533;BMP180;58088;51.186;17.130;2023-08-01T04:58:31;98984.60;;;20.60
70533;BMP180;58088;51.186;17.130;2023-08-01T05:00:58;98989.00;;;20.60
70533;BMP180;58088;51.186;17.130;2023-08-01T05:03:24;98982.00;;;20.50
70533;BMP180;58088;51.186;17.130;2023-08-01T05:05:50;98984.80;;;20.50
70533;BMP180;58088;51.186;17.130;2023-08-01T05:08:17;98988.00;;;20.46
70533;BMP180;58088;51.186;17.130;2023-08-01T05:10:43;98983.60;;;20.40
70533;BMP180;58088;51.186;17.130;2023-08-01T05:13:09;98987.20;;;20.40
70533;BMP180;58088;51.186;17.130;2023-08-01T05:15:36;98985.00;;;20.40
70533;BMP180;58088;51.186;17.130;2023-08-01T05:18:02;98989.40;;;20.34
70533;BMP180;58088;51.186;17.130;2023-08-01T05:20:28;98987.60;;;20.30
70533;BMP180;58088;51.186;17.130;2023-08-01T05:22:59;98984.60;;;20.36
70533;BMP180;58088;51.186;17.130;2023-08-01T05:25:25;98987.80;;;20.36
70533;BMP180;58088;51.186;17.130;2023-08-01T05:27:51;98990.40;;;20.40
70533;BMP180;58088;51.186;17.130;2023-08-01T05:30:18;98987.80;;;20.38
70533;BMP180;58088;51.186;17.130;2023-08-01T05:32:44;98984.80;;;20.40
70533;BMP180;58088;51.186;17.130;2023-08-01T05:35:11;98977.20;;;20.40
70533;BMP180;58088;51.186;17.130;2023-08-01T05:37:37;98978.60;;;20.40
70533;BMP180;58088;51.186;17.130;2023-08-01T05:40:04;98973.60;;;20.40
70533;BMP180;58088;51.186;17.130;2023-08-01T05:42:30;98974.40;;;20.38
70533;BMP180;58088;51.186;17.130;2023-08-01T05:44:56;98978.00;;;20.32
70533;BMP180;58088;51.186;17.130;2023-08-01T05:47:23;98975.80;;;20.30
70533;BMP180;58088;51.186;17.130;2023-08-01T05:49:49;98978.60;;;20.30
70533;BMP180;58088;51.186;17.130;2023-08-01T05:52:15;98982.80;;;20.30
70533;BMP180;58088;51.186;17.130;2023-08-01T05:54:41;98972.60;;;20.30
70533;BMP180;58088;51.186;17.130;2023-08-01T05:57:08;98971.20;;;20.30
70533;BMP180;58088;51.186;17.130;2023-08-01T05:59:34;98972.00;;;20.30
70533;BMP180;58088;51.186;17.130;2023-08-01T06:02:00;98966.00;;;20.30
70533;BMP180;58088;51.186;17.130;2023-08-01T06:04:26;98969.80;;;20.30
70533;BMP180;58088;51.186;17.130;2023-08-01T06:06:53;98968.80;;;20.30
70533;BMP180;58088;51.186;17.130;2023-08-01T06:09:19;98971.00;;;20.30
70533;BMP180;58088;51.186;17.130;2023-08-01T06:11:45;98971.20;;;20.30
70533;BMP180;58088;51.186;17.130;2023-08-01T06:14:11;98971.80;;;20.30
70533;BMP180;58088;51.186;17.130;2023-08-01T06:16:38;98962.20;;;20.40
70533;BMP180;58088;51.186;17.130;2023-08-01T06:19:04;98964.00;;;20.40
70533;BMP180;58088;51.186;17.130;2023-08-01T06:21:30;98967.40;;;20.40
70533;BMP180;58088;51.186;17.130;2023-08-01T06:23:56;98961.60;;;20.40
70533;BMP180;58088;51.186;17.130;2023-08-01T06:26:23;98959.40;;;20.42
70533;BMP180;58088;51.186;17.130;2023-08-01T06:28:49;98952.20;;;20.40
70533;BMP180;58088;51.186;17.130;2023-08-01T06:31:20;98949.00;;;20.40
70533;BMP180;58088;51.186;17.130;2023-08-01T06:33:46;98951.80;;;20.50
70533;BMP180;58088;51.186;17.130;2023-08-01T06:36:13;98950.00;;;20.50
70533;BMP180;58088;51.186;17.130;2023-08-01T06:38:39;98942.60;;;20.50
70533;BMP180;58088;51.186;17.130;2023-08-01T06:41:05;98946.20;;;20.50
70533;BMP180;58088;51.186;17.130;2023-08-01T06:43:32;98938.00;;;20.52
70533;BMP180;58088;51.186;17.130;2023-08-01T06:45:58;98933.80;;;20.60
70533;BMP180;58088;51.186;17.130;2023-08-01T06:48:25;98931.20;;;20.60
70533;BMP180;58088;51.186;17.130;2023-08-01T06:50:51;98925.60;;;20.60
70533;BMP180;58088;51.186;17.130;2023-08-01T06:53:17;98916.60;;;20.60
70533;BMP180;58088;51.186;17.130;2023-08-01T06:55:43;98915.60;;;20.60
70533;BMP180;58088;51.186;17.130;2023-08-01T06:58:09;98912.80;;;20.60
70533;BMP180;58088;51.186;17.130;2023-08-01T07:00:35;98911.80;;;20.60
70533;BMP180;58088;51.186;17.130;2023-08-01T07:03:02;98912.00;;;20.60
70533;BMP180;58088;51.186;17.130;2023-08-01T07:05:28;98911.00;;;20.60
70533;BMP180;58088;51.186;17.130;2023-08-01T07:07:55;98908.40;;;20.60
70533;BMP180;58088;51.186;17.130;2023-08-01T07:10:22;98914.00;;;20.62
70533;BMP180;58088;51.186;17.130;2023-08-01T07:12:48;98912.40;;;20.60
70533;BMP180;58088;51.186;17.130;2023-08-01T07:15:14;98910.40;;;20.60
70533;BMP180;58088;51.186;17.130;2023-08-01T07:17:41;98905.40;;;20.60
70533;BMP180;58088;51.186;17.130;2023-08-01T07:20:07;98904.60;;;20.60
70533;BMP180;58088;51.186;17.130;2023-08-01T07:22:34;98903.40;;;20.60
70533;BMP180;58088;51.186;17.130;2023-08-01T07:25:00;98901.80;;;20.60
70533;BMP180;58088;51.186;17.130;2023-08-01T07:27:27;98896.60;;;20.60
70533;BMP180;58088;51.186;17.130;2023-08-01T07:29:53;98895.80;;;20.60
70533;BMP180;58088;51.186;17.130;2023-08-01T07:32:20;98897.20;;;20.60
70533;BMP180;58088;51.186;17.130;2023-08-01T07:34:46;98900.40;;;20.60
70533;BMP180;58088;51.186;17.130;2023-08-01T07:37:12;98896.40;;;20.60
70533;BMP180;58088;51.186;17.130;2023-08-01T07:39:38;98893.40;;;20.60
70533;BMP180;58088;51.186;17.130;2023-08-01T07:42:05;98888.60;;;20.62
70533;BMP180;58088;51.186;17.130;2023-08-01T07:44:31;98886.60;;;20.70
70533;BMP180;58088;51.186;17.130;2023-08-01T07:46:57;98887.00;;;20.70
70533;BMP180;58088;51.186;17.130;2023-08-01T07:49:23;98881.20;;;20.80
70533;BMP180;58088;51.186;17.130;2023-08-01T07:51:49;98880.60;;;20.80
70533;BMP180;58088;51.186;17.130;2023-08-01T07:54:16;98871.60;;;20.90
70533;BMP180;58088;51.186;17.130;2023-08-01T07:56:43;98857.60;;;21.00
70533;BMP180;58088;51.186;17.130;2023-08-01T07:59:09;98865.00;;;21.10
70533;BMP180;58088;51.186;17.130;2023-08-01T08:01:36;98869.20;;;21.16
70533;BMP180;58088;51.186;17.130;2023-08-01T08:04:02;98867.20;;;21.30
70533;BMP180;58088;51.186;17.130;2023-08-01T08:06:28;98861.80;;;21.40
70533;BMP180;58088;51.186;17.130;2023-08-01T08:08:54;98860.00;;;21.50
70533;BMP180;58088;51.186;17.130;2023-08-01T08:11:20;98851.20;;;21.60
70533;BMP180;58088;51.186;17.130;2023-08-01T08:13:47;98852.20;;;21.70
70533;BMP180;58088;51.186;17.130;2023-08-01T08:16:13;98850.80;;;21.80
70533;BMP180;58088;51.186;17.130;2023-08-01T08:18:39;98850.00;;;21.90
70533;BMP180;58088;51.186;17.130;2023-08-01T08:21:13;98846.20;;;21.94
70533;BMP180;58088;51.186;17.130;2023-08-01T08:23:47;98836.60;;;22.00
70533;BMP180;58088;51.186;17.130;2023-08-01T08:26:13;98834.00;;;22.10
70533;BMP180;58088;51.186;17.130;2023-08-01T08:28:39;98829.60;;;22.10
70533;BMP180;58088;51.186;17.130;2023-08-01T08:31:08;98827.40;;;22.14
70533;BMP180;58088;51.186;17.130;2023-08-01T08:33:34;98826.40;;;22.20
70533;BMP180;58088;51.186;17.130;2023-08-01T08:36:00;98822.00;;;22.30
70533;BMP180;58088;51.186;17.130;2023-08-01T08:38:26;98818.80;;;22.30
70533;BMP180;58088;51.186;17.130;2023-08-01T08:41:13;98809.00;;;22.40
70533;BMP180;58088;51.186;17.130;2023-08-01T08:43:41;98806.60;;;22.40
70533;BMP180;58088;51.186;17.130;2023-08-01T08:46:09;98806.60;;;22.40
70533;BMP180;58088;51.186;17.130;2023-08-01T08:48:35;98809.00;;;22.40
70533;BMP180;58088;51.186;17.130;2023-08-01T08:51:03;98809.60;;;22.42
70533;BMP180;58088;51.186;17.130;2023-08-01T08:53:31;98816.80;;;22.40
70533;BMP180;58088;51.186;17.130;2023-08-01T08:56:00;98813.40;;;22.40
70533;BMP180;58088;51.186;17.130;2023-08-01T08:58:26;98813.40;;;22.34
70533;BMP180;58088;51.186;17.130;2023-08-01T09:00:55;98813.40;;;22.38
70533;BMP180;58088;51.186;17.130;2023-08-01T09:07:10;98812.20;;;22.32
70533;BMP180;58088;51.186;17.130;2023-08-01T09:09:38;98804.20;;;22.40
70533;BMP180;58088;51.186;17.130;2023-08-01T09:12:05;98802.60;;;22.42
70533;BMP180;58088;51.186;17.130;2023-08-01T09:14:32;98798.20;;;22.50
70533;BMP180;58088;51.186;17.130;2023-08-01T09:17:09;98803.20;;;22.58
70533;BMP180;58088;51.186;17.130;2023-08-01T09:19:36;98803.60;;;22.60
70533;BMP180;58088;51.186;17.130;2023-08-01T09:22:11;98808.80;;;22.70
70533;BMP180;58088;51.186;17.130;2023-08-01T09:24:38;98803.20;;;22.70
70533;BMP180;58088;51.186;17.130;2023-08-01T09:27:06;98806.60;;;22.70
70533;BMP180;58088;51.186;17.130;2023-08-01T09:29:34;98809.40;;;22.66
70533;BMP180;58088;51.186;17.130;2023-08-01T09:32:12;98808.80;;;22.66
70533;BMP180;58088;51.186;17.130;2023-08-01T09:34:41;98802.80;;;22.64
70533;BMP180;58088;51.186;17.130;2023-08-01T09:37:09;98799.60;;;22.70
70533;BMP180;58088;51.186;17.130;2023-08-01T09:39:36;98801.80;;;22.68
70533;BMP180;58088;51.186;17.130;2023-08-01T09:42:04;98802.80;;;22.60
70533;BMP180;58088;51.186;17.130;2023-08-01T09:44:30;98803.00;;;22.60
70533;BMP180;58088;51.186;17.130;2023-08-01T09:47:05;98803.80;;;22.50
70533;BMP180;58088;51.186;17.130;2023-08-01T09:49:35;98799.80;;;22.52
70533;BMP180;58088;51.186;17.130;2023-08-01T09:52:03;98786.20;;;22.50
70533;BMP180;58088;51.186;17.130;2023-08-01T09:54:29;98784.40;;;22.50
70533;BMP180;58088;51.186;17.130;2023-08-01T09:56:55;98772.00;;;22.50
70533;BMP180;58088;51.186;17.130;2023-08-01T09:59:24;98761.00;;;22.42
70533;BMP180;58088;51.186;17.130;2023-08-01T10:01:53;98765.80;;;22.50
70533;BMP180;58088;51.186;17.130;2023-08-01T10:04:27;98756.80;;;22.50
70533;BMP180;58088;51.186;17.130;2023-08-01T10:07:00;98760.60;;;22.50
70533;BMP180;58088;51.186;17.130;2023-08-01T10:09:30;98765.00;;;22.60
70533;BMP180;58088;51.186;17.130;2023-08-01T10:11:58;98760.80;;;22.60
70533;BMP180;58088;51.186;17.130;2023-08-01T10:14:25;98756.00;;;22.60
70533;BMP180;58088;51.186;17.130;2023-08-01T10:16:53;98748.40;;;22.60
70533;BMP180;58088;51.186;17.130;2023-08-01T10:19:19;98744.60;;;22.60
70533;BMP180;58088;51.186;17.130;2023-08-01T10:21:47;98736.20;;;22.62
70533;BMP180;58088;51.186;17.130;2023-08-01T10:24:15;98737.20;;;22.68
70533;BMP180;58088;51.186;17.130;2023-08-01T10:26:46;98739.20;;;22.70
70533;BMP180;58088;51.186;17.130;2023-08-01T10:29:13;98734.00;;;22.70
70533;BMP180;58088;51.186;17.130;2023-08-01T10:31:50;98734.40;;;22.70
70533;BMP180;58088;51.186;17.130;2023-08-01T10:34:17;98733.80;;;22.78
70533;BMP180;58088;51.186;17.130;2023-08-01T10:36:57;98730.60;;;22.78
70533;BMP180;58088;51.186;17.130;2023-08-01T10:39:26;98733.80;;;22.80
70533;BMP180;58088;51.186;17.130;2023-08-01T10:42:01;98727.60;;;22.80
70533;BMP180;58088;51.186;17.130;2023-08-01T10:44:28;98729.80;;;22.80
70533;BMP180;58088;51.186;17.130;2023-08-01T10:47:01;98729.60;;;22.80
70533;BMP180;58088;51.186;17.130;2023-08-01T10:49:43;98721.60;;;22.80
70533;BMP180;58088;51.186;17.130;2023-08-01T10:55:04;98728.40;;;22.80
70533;BMP180;58088;51.186;17.130;2023-08-01T10:57:37;98727.00;;;22.80
70533;BMP180;58088;51.186;17.130;2023-08-01T11:00:05;98730.60;;;22.80
70533;BMP180;58088;51.186;17.130;2023-08-01T11:02:36;98728.60;;;22.80
70533;BMP180;58088;51.186;17.130;2023-08-01T11:05:07;98732.60;;;22.80
70533;BMP180;58088;51.186;17.130;2023-08-01T11:07:34;98726.80;;;22.78
70533;BMP180;58088;51.186;17.130;2023-08-01T11:10:10;98727.20;;;22.70
70533;BMP180;58088;51.186;17.130;2023-08-01T11:12:42;98719.40;;;22.60
70533;BMP180;58088;51.186;17.130;2023-08-01T11:15:14;98715.40;;;22.60
70533;BMP180;58088;51.186;17.130;2023-08-01T11:17:47;98719.60;;;22.60
70533;BMP180;58088;51.186;17.130;2023-08-01T11:20:14;98720.00;;;22.60
70533;BMP180;58088;51.186;17.130;2023-08-01T11:25:17;98710.60;;;22.50
70533;BMP180;58088;51.186;17.130;2023-08-01T11:27:44;98707.80;;;22.50
70533;BMP180;58088;51.186;17.130;2023-08-01T11:30:11;98699.80;;;22.40
70533;BMP180;58088;51.186;17.130;2023-08-01T11:32:38;98694.40;;;22.40
70533;BMP180;58088;51.186;17.130;2023-08-01T11:35:05;98693.00;;;22.40
70533;BMP180;58088;51.186;17.130;2023-08-01T11:37:33;98687.80;;;22.40
70533;BMP180;58088;51.186;17.130;2023-08-01T11:40:00;98684.40;;;22.40
70533;BMP180;58088;51.186;17.130;2023-08-01T11:42:31;98687.40;;;22.50
70533;BMP180;58088;51.186;17.130;2023-08-01T11:45:09;98686.00;;;22.50
70533;BMP180;58088;51.186;17.130;2023-08-01T11:47:36;98682.40;;;22.50
70533;BMP180;58088;51.186;17.130;2023-08-01T11:50:02;98686.00;;;22.56
70533;BMP180;58088;51.186;17.130;2023-08-01T11:52:29;98688.20;;;22.60
70533;BMP180;58088;51.186;17.130;2023-08-01T11:54:56;98682.00;;;22.70
70533;BMP180;58088;51.186;17.130;2023-08-01T11:57:23;98675.40;;;22.70
70533;BMP180;58088;51.186;17.130;2023-08-01T11:59:53;98666.80;;;22.80
70533;BMP180;58088;51.186;17.130;2023-08-01T12:02:24;98662.00;;;22.88
70533;BMP180;58088;51.186;17.130;2023-08-01T12:04:53;98664.20;;;22.92
70533;BMP180;58088;51.186;17.130;2023-08-01T12:07:20;98659.20;;;23.00
70533;BMP180;58088;51.186;17.130;2023-08-01T12:09:58;98662.00;;;23.10
70533;BMP180;58088;51.186;17.130;2023-08-01T12:12:29;98657.20;;;23.20
70533;BMP180;58088;51.186;17.130;2023-08-01T12:14:56;98656.80;;;23.30
70533;BMP180;58088;51.186;17.130;2023-08-01T12:17:23;98649.60;;;23.40
70533;BMP180;58088;51.186;17.130;2023-08-01T12:19:49;98652.00;;;23.58
70533;BMP180;58088;51.186;17.130;2023-08-01T12:22:16;98641.00;;;23.70
70533;BMP180;58088;51.186;17.130;2023-08-01T12:24:42;98639.00;;;23.88
70533;BMP180;58088;51.186;17.130;2023-08-01T12:27:09;98634.80;;;24.00
70533;BMP180;58088;51.186;17.130;2023-08-01T12:29:36;98625.40;;;24.12
70533;BMP180;58088;51.186;17.130;2023-08-01T12:32:03;98632.00;;;24.30
70533;BMP180;58088;51.186;17.130;2023-08-01T12:34:30;98629.20;;;24.50
70533;BMP180;58088;51.186;17.130;2023-08-01T12:36:56;98626.20;;;24.60
70533;BMP180;58088;51.186;17.130;2023-08-01T12:39:22;98620.40;;;24.70
70533;BMP180;58088;51.186;17.130;2023-08-01T12:41:51;98611.80;;;24.84
70533;BMP180;58088;51.186;17.130;2023-08-01T12:44:18;98618.00;;;24.90
70533;BMP180;58088;51.186;17.130;2023-08-01T12:46:45;98626.00;;;25.02
70533;BMP180;58088;51.186;17.130;2023-08-01T12:49:11;98629.80;;;25.20
70533;BMP180;58088;51.186;17.130;2023-08-01T12:51:37;98625.00;;;25.30
70533;BMP180;58088;51.186;17.130;2023-08-01T12:54:04;98627.40;;;25.40
70533;BMP180;58088;51.186;17.130;2023-08-01T12:56:30;98632.80;;;25.50
70533;BMP180;58088;51.186;17.130;2023-08-01T12:58:56;98624.20;;;25.60
70533;BMP180;58088;51.186;17.130;2023-08-01T13:01:22;98627.40;;;25.70
70533;BMP180;58088;51.186;17.130;2023-08-01T13:03:48;98634.00;;;25.70
70533;BMP180;58088;51.186;17.130;2023-08-01T13:06:15;98629.40;;;25.80
70533;BMP180;58088;51.186;17.130;2023-08-01T13:08:41;98632.60;;;25.80
70533;BMP180;58088;51.186;17.130;2023-08-01T13:11:13;98628.80;;;25.90
70533;BMP180;58088;51.186;17.130;2023-08-01T13:13:41;98630.20;;;25.90
70533;BMP180;58088;51.186;17.130;2023-08-01T13:16:07;98631.40;;;26.00
70533;BMP180;58088;51.186;17.130;2023-08-01T13:18:34;98620.60;;;26.00
70533;BMP180;58088;51.186;17.130;2023-08-01T13:21:01;98613.40;;;26.04
70533;BMP180;58088;51.186;17.130;2023-08-01T13:23:27;98620.20;;;26.10
70533;BMP180;58088;51.186;17.130;2023-08-01T13:25:53;98621.40;;;26.28
70533;BMP180;58088;51.186;17.130;2023-08-01T13:28:20;98616.80;;;26.30
70533;BMP180;58088;51.186;17.130;2023-08-01T13:30:46;98618.20;;;26.30
70533;BMP180;58088;51.186;17.130;2023-08-01T13:33:13;98615.00;;;26.30
70533;BMP180;58088;51.186;17.130;2023-08-01T13:35:39;98613.20;;;26.30
70533;BMP180;58088;51.186;17.130;2023-08-01T13:38:05;98614.40;;;26.30
70533;BMP180;58088;51.186;17.130;2023-08-01T13:40:33;98607.40;;;26.20
70533;BMP180;58088;51.186;17.130;2023-08-01T13:42:59;98612.40;;;26.20
70533;BMP180;58088;51.186;17.130;2023-08-01T13:45:25;98605.00;;;26.30
70533;BMP180;58088;51.186;17.130;2023-08-01T13:47:51;98610.00;;;26.40
70533;BMP180;58088;51.186;17.130;2023-08-01T13:50:17;98617.60;;;26.50
70533;BMP180;58088;51.186;17.130;2023-08-01T13:52:44;98610.60;;;26.60
70533;BMP180;58088;51.186;17.130;2023-08-01T13:55:10;98622.40;;;26.62
70533;BMP180;58088;51.186;17.130;2023-08-01T13:57:37;98619.60;;;26.70
70533;BMP180;58088;51.186;17.130;2023-08-01T14:00:04;98615.60;;;26.90
70533;BMP180;58088;51.186;17.130;2023-08-01T14:02:37;98626.60;;;27.10
70533;BMP180;58088;51.186;17.130;2023-08-01T14:05:03;98622.00;;;27.30
70533;BMP180;58088;51.186;17.130;2023-08-01T14:07:30;98617.40;;;27.50
70533;BMP180;58088;51.186;17.130;2023-08-01T14:09:57;98623.40;;;27.50